Time;durP1;ratioP1;P1;durP2;ratioP2;P2;SDS_P1;SDS_P2;PMS_P1;PMS_P2;Temp;Humidity;BMP_temperature;BMP_pressure;BME280_temperature;BME280_humidity;BME280_pressure;Samples;Min_cycle;Max_cycle;Signal;HPM_P1;HPM_P2
2023/10/11 00:02:18;;;;;;;1999.90;999.90;;;12.60;99.60;;;;;;5048115;28;20029;-76
2023/10/11 00:04:48;;;;;;;1999.90;999.90;;;12.60;99.70;;;;;;5052895;28;20514;-76
2023/10/11 00:07:18;;;;;;;;;;;12.50;99.50;;;;;;5057500;28;20040;-76
2023/10/11 00:09:44;;;;;;;1999.90;999.90;;;12.40;99.40;;;;;;5051300;28;20007;-77
2023/10/11 00:12:11;;;;;;;1999.90;999.90;;;12.40;99.50;;;;;;5052220;28;20124;-75
2023/10/11 00:14:40;;;;;;;1999.90;999.90;;;12.30;99.40;;;;;;5047925;28;20033;-75
2023/10/11 00:17:08;;;;;;;1999.90;999.90;;;12.20;99.40;;;;;;5052753;28;20036;-75
2023/10/11 00:19:34;;;;;;;1999.90;999.90;;;12.30;99.60;;;;;;5055654;28;20053;-77
2023/10/11 00:22:01;;;;;;;1999.90;999.90;;;12.30;99.70;;;;;;5054406;28;20063;-75
2023/10/11 00:24:28;;;;;;;1999.90;999.90;;;12.20;99.60;;;;;;5052391;28;20391;-75
2023/10/11 00:26:56;;;;;;;1999.90;999.90;;;12.20;99.50;;;;;;5049200;28;20025;-76
2023/10/11 00:29:22;;;;;;;1999.90;999.90;;;12.20;99.70;;;;;;5049398;28;20025;-75
2023/10/11 00:31:51;;;;;;;1999.90;999.90;;;12.20;99.60;;;;;;5050782;28;20135;-75
2023/10/11 00:34:18;;;;;;;1999.90;999.90;;;12.10;99.40;;;;;;5057582;28;20152;-78
2023/10/11 00:36:45;;;;;;;1999.90;999.90;;;12.00;99.50;;;;;;5053197;28;20732;-74
2023/10/11 00:39:17;;;;;;;1999.90;999.90;;;12.00;99.50;;;;;;5054171;28;20845;-77
2023/10/11 00:41:46;;;;;;;1999.90;999.90;;;12.00;99.80;;;;;;5051954;28;20024;-77
2023/10/11 00:44:16;;;;;;;1999.90;999.90;;;11.90;99.50;;;;;;5053382;28;20071;-75
2023/10/11 00:46:59;;;;;;;1999.90;999.90;;;11.90;99.50;;;;;;5054539;28;20041;-77
2023/10/11 00:49:36;;;;;;;1999.90;999.90;;;11.70;99.40;;;;;;5050764;28;20075;-76
2023/10/11 00:52:04;;;;;;;1999.90;999.90;;;11.70;99.50;;;;;;5047272;28;20061;-76
2023/10/11 00:54:30;;;;;;;1999.90;999.90;;;11.80;99.90;;;;;;5034720;28;20036;-77
2023/10/11 00:56:56;;;;;;;1999.90;999.90;;;11.70;99.80;;;;;;5053650;28;20513;-77
2023/10/11 00:59:22;;;;;;;1999.90;999.90;;;11.70;99.60;;;;;;5053598;28;20036;-76
2023/10/11 01:01:51;;;;;;;1999.90;999.90;;;11.70;99.90;;;;;;5050953;28;20034;-75
2023/10/11 01:04:18;;;;;;;1999.90;999.90;;;11.70;99.70;;;;;;5053819;28;20076;-75
2023/10/11 01:06:47;;;;;;;1999.90;999.90;;;11.60;99.80;;;;;;5055484;28;20108;-77
2023/10/11 01:09:26;;;;;;;1999.90;999.90;;;11.60;99.90;;;;;;5056893;28;20104;-75
2023/10/11 01:11:52;;;;;;;1999.90;999.90;;;11.60;99.90;;;;;;5056304;28;20029;-77
2023/10/11 01:14:17;;;;;;;1999.90;999.90;;;11.60;99.90;;;;;;5056292;28;20021;-75
2023/10/11 01:16:43;;;;;;;1999.90;999.90;;;11.70;99.90;;;;;;5047104;28;20527;-76
2023/10/11 01:19:15;;;;;;;1999.90;999.90;;;11.60;99.90;;;;;;5056066;28;20507;-75
2023/10/11 01:21:48;;;;;;;1999.90;999.90;;;11.60;99.90;;;;;;5047689;28;20700;-77
2023/10/11 01:24:16;;;;;;;1999.90;999.90;;;11.70;99.90;;;;;;5046072;28;20083;-74
2023/10/11 01:26:42;;;;;;;1999.90;999.90;;;11.60;99.90;;;;;;5049613;28;20083;-74
2023/10/11 01:29:09;;;;;;;1999.90;999.90;;;11.50;99.90;;;;;;5050713;28;20041;-77
2023/10/11 01:31:35;;;;;;;1999.90;999.90;;;11.40;99.80;;;;;;5052713;28;20546;-75
2023/10/11 01:34:01;;;;;;;1999.90;999.90;;;11.40;99.80;;;;;;5054607;28;20041;-76
2023/10/11 01:36:27;;;;;;;1999.90;999.90;;;11.30;99.80;;;;;;5039713;28;20027;-77
2023/10/11 01:38:53;;;;;;;1999.90;999.90;;;11.30;99.80;;;;;;5048203;28;20021;-76
2023/10/11 01:41:27;;;;;;;1999.90;999.90;;;11.40;99.90;;;;;;5054243;28;20119;-75
2023/10/11 01:43:53;;;;;;;1999.90;999.90;;;11.30;99.90;;;;;;5055444;28;20375;-74
2023/10/11 01:46:27;;;;;;;1999.90;999.90;;;11.30;99.90;;;;;;5050988;28;20048;-75
2023/10/11 01:48:56;;;;;;;1999.90;999.90;;;11.30;99.90;;;;;;5043845;28;20028;-75
2023/10/11 01:51:29;;;;;;;1999.90;999.90;;;11.40;99.90;;;;;;5051450;28;20079;-77
2023/10/11 01:54:04;;;;;;;1999.90;999.90;;;11.40;99.90;;;;;;5055156;28;20790;-77
2023/10/11 01:56:30;;;;;;;1999.90;999.90;;;11.40;99.90;;;;;;5052674;28;20029;-76
2023/10/11 01:58:56;;;;;;;1999.90;999.90;;;11.40;99.90;;;;;;5057176;28;20028;-76
2023/10/11 02:01:26;;;;;;;1999.90;999.90;;;11.40;99.90;;;;;;5049995;28;20039;-75
2023/10/11 02:03:56;;;;;;;1999.90;999.90;;;11.40;99.90;;;;;;5049600;28;20075;-74
2023/10/11 02:06:23;;;;;;;1999.90;999.90;;;11.40;99.90;;;;;;5058801;28;20435;-75
2023/10/11 02:08:50;;;;;;;1999.90;999.90;;;11.40;99.90;;;;;;5054288;28;20056;-76
2023/10/11 02:11:16;;;;;;;1999.90;999.90;;;11.40;99.90;;;;;;5051294;28;20550;-75
2023/10/11 02:13:43;;;;;;;1999.90;999.90;;;11.30;99.90;;;;;;5052585;28;20124;-77
2023/10/11 02:16:14;;;;;;;1999.90;999.90;;;11.40;99.90;;;;;;5050248;28;20052;-76
2023/10/11 02:18:40;;;;;;;1999.90;999.90;;;11.40;99.90;;;;;;5058162;28;20033;-75
2023/10/11 02:21:06;;;;;;;1999.90;999.90;;;11.30;99.90;;;;;;5053278;28;20029;-75
2023/10/11 02:23:39;;;;;;;1999.90;999.90;;;11.40;99.90;;;;;;5054736;28;20073;-75
2023/10/11 02:26:09;;;;;;;1999.90;999.90;;;11.40;99.90;;;;;;5046010;28;20490;-78
2023/10/11 02:28:38;;;;;;;1999.90;999.90;;;11.40;99.90;;;;;;5055285;28;20036;-77
2023/10/11 02:31:07;;;;;;;1999.90;999.90;;;11.30;99.90;;;;;;5052603;28;20435;-76
2023/10/11 02:33:34;;;;;;;1999.90;999.90;;;11.30;99.90;;;;;;5051124;28;20584;-77
2023/10/11 02:36:08;;;;;;;1999.90;999.90;;;11.30;99.90;;;;;;5064561;28;20298;-76
2023/10/11 02:38:39;;;;;;;1999.90;999.90;;;11.30;99.90;;;;;;5065738;28;20071;-75
2023/10/11 02:41:07;;;;;;;1999.90;999.90;;;11.30;99.90;;;;;;5064799;28;20053;-78
2023/10/11 02:43:33;;;;;;;1999.90;999.90;;;11.40;99.90;;;;;;5061957;28;20109;-76
2023/10/11 02:45:59;;;;;;;1999.90;999.90;;;11.40;99.90;;;;;;5051782;28;20053;-76
2023/10/11 02:48:27;;;;;;;1999.90;999.90;;;11.30;99.90;;;;;;5061778;28;20059;-75
2023/10/11 02:50:57;;;;;;;1999.90;999.90;;;11.30;99.90;;;;;;5069396;28;20033;-74
2023/10/11 02:53:23;;;;;;;1999.90;999.90;;;11.30;99.90;;;;;;5060295;28;20028;-77
2023/10/11 02:55:58;;;;;;;1999.90;999.90;;;11.20;99.90;;;;;;5048407;28;20511;-75
2023/10/11 02:58:26;;;;;;;1999.90;999.90;;;11.10;99.90;;;;;;5051434;28;20051;-76
2023/10/11 03:00:57;;;;;;;1999.90;999.90;;;11.10;99.90;;;;;;5050042;28;20036;-76
2023/10/11 03:03:23;;;;;;;1999.90;999.90;;;11.10;99.90;;;;;;5049160;28;20506;-75
2023/10/11 03:05:48;;;;;;;1999.90;999.90;;;11.00;99.80;;;;;;5054444;28;20041;-76
2023/10/11 03:08:15;;;;;;;1999.90;999.90;;;11.00;99.80;;;;;;5049223;28;20032;-75
2023/10/11 03:10:53;;;;;;;1999.90;999.90;;;10.90;99.90;;;;;;5052948;28;20107;-77
2023/10/11 03:13:29;;;;;;;1999.90;999.90;;;10.90;99.80;;;;;;5049338;28;20021;-78
2023/10/11 03:15:56;;;;;;;1999.90;999.90;;;10.80;99.80;;;;;;5053544;28;20028;-75
2023/10/11 03:18:36;;;;;;;1999.90;999.90;;;10.80;99.90;;;;;;5056775;28;20040;-75
2023/10/11 03:21:17;;;;;;;1999.90;999.90;;;10.70;99.90;;;;;;5051936;28;20017;-76
2023/10/11 03:24:03;;;;;;;1999.90;999.90;;;10.60;99.90;;;;;;5043321;28;20025;-75
2023/10/11 03:28:57;;;;;;;1999.90;999.90;;;10.60;99.90;;;;;;5057471;28;20052;-75
2023/10/11 03:31:31;;;;;;;1999.90;999.90;;;10.50;99.90;;;;;;5054003;28;20041;-75
2023/10/11 03:33:58;;;;;;;1999.90;999.90;;;10.50;99.90;;;;;;5063441;28;20032;-75
2023/10/11 03:36:34;;;;;;;1999.90;999.90;;;10.60;99.90;;;;;;5055340;28;20036;-75
2023/10/11 03:39:09;;;;;;;1999.90;999.90;;;10.60;99.90;;;;;;5045634;28;20040;-75
2023/10/11 03:41:47;;;;;;;1999.90;999.90;;;10.60;99.90;;;;;;5052383;28;20111;-77
2023/10/11 03:44:17;;;;;;;1999.90;999.90;;;10.70;99.90;;;;;;5059064;28;20040;-77
2023/10/11 03:46:47;;;;;;;1999.90;999.90;;;10.60;99.90;;;;;;5053185;28;20033;-75
2023/10/11 03:51:48;;;;;;;1999.90;999.90;;;10.40;99.90;;;;;;5056045;28;20035;-76
2023/10/11 03:54:21;;;;;;;1999.90;999.90;;;10.40;99.90;;;;;;5058146;28;20494;-75
2023/10/11 03:56:54;;;;;;;1999.90;999.90;;;10.30;99.90;;;;;;5056554;28;20029;-75
2023/10/11 03:59:20;;;;;;;1999.90;999.90;;;10.30;99.90;;;;;;5053324;28;20125;-76
2023/10/11 04:01:47;;;;;;;1999.90;999.90;;;10.30;99.90;;;;;;5054905;28;20112;-76
2023/10/11 04:04:13;;;;;;;1999.90;999.90;;;10.40;99.90;;;;;;5057634;28;20548;-77
2023/10/11 04:06:39;;;;;;;1999.90;999.90;;;10.30;99.90;;;;;;5057516;28;20048;-75
2023/10/11 04:09:22;;;;;;;1999.90;999.90;;;10.30;99.90;;;;;;5056233;28;20710;-78
2023/10/11 04:11:55;;;;;;;1999.90;999.90;;;10.40;99.90;;;;;;5052089;28;20033;-76
2023/10/11 04:14:39;;;;;;;1999.90;999.90;;;10.40;99.90;;;;;;5047165;28;20041;-75
2023/10/11 04:17:26;;;;;;;1999.90;999.90;;;10.40;99.90;;;;;;5053797;28;20119;-76
2023/10/11 04:20:00;;;;;;;1999.90;999.90;;;10.40;99.80;;;;;;5049741;28;20032;-74
2023/10/11 04:22:31;;;;;;;1999.90;999.90;;;10.30;99.80;;;;;;5054717;28;20375;-74
2023/10/11 04:24:57;;;;;;;;;;;10.20;99.70;;;;;;5049620;28;20040;-74
2023/10/11 04:29:53;;;;;;;1999.90;999.90;;;10.00;99.70;;;;;;5058043;28;20082;-73
2023/10/11 04:35:36;;;;;;;1999.90;999.90;;;9.90;99.70;;;;;;5046530;28;20053;-74
2023/10/11 04:38:03;;;;;;;1999.90;999.90;;;9.90;99.80;;;;;;5047435;28;20714;-73
2023/10/11 04:43:06;;;;;;;1999.90;999.90;;;9.90;99.80;;;;;;5050604;28;20422;-83
2023/10/11 04:45:45;;;;;;;1999.90;999.90;;;9.90;99.80;;;;;;5046549;28;20084;-73
2023/10/11 04:48:14;;;;;;;1999.90;999.90;;;9.90;99.70;;;;;;5051085;28;20543;-74
2023/10/11 04:50:45;;;;;;;1999.90;999.90;;;9.90;99.90;;;;;;5045674;28;20025;-72
2023/10/11 04:53:17;;;;;;;1999.90;999.90;;;9.90;99.80;;;;;;5058579;28;20055;-73
2023/10/11 04:55:59;;;;;;;1999.90;999.90;;;9.80;99.80;;;;;;5055036;28;20490;-73
2023/10/11 04:59:06;;;;;;;1999.90;999.90;;;9.90;99.90;;;;;;5054028;28;20037;-73
2023/10/11 05:01:22;;;;;;;1999.90;999.90;;;9.80;99.90;;;;;;5052572;28;20049;-74
2023/10/11 05:03:59;;;;;;;1999.90;999.90;;;9.90;99.90;;;;;;5051087;28;20557;-73
2023/10/11 05:06:39;;;;;;;1999.90;999.90;;;9.90;99.90;;;;;;5054764;28;20555;-74
2023/10/11 05:10:29;;;;;;;;;;;9.90;99.80;;;;;;5055380;28;20028;-74
2023/10/11 05:14:29;;;;;;;1999.90;999.90;;;9.90;99.70;;;;;;5053829;28;20029;-75
2023/10/11 05:17:16;;;;;;;1999.90;999.90;;;9.90;99.70;;;;;;5060287;28;20033;-74
2023/10/11 05:19:46;;;;;;;1999.90;999.90;;;9.90;99.80;;;;;;5049264;28;20523;-76
2023/10/11 05:32:41;;;;;;;1999.90;999.90;;;10.10;99.60;;;;;;5047226;28;20063;-80
2023/10/11 05:51:43;;;;;;;1999.90;999.90;;;10.20;98.70;;;;;;5044999;28;20399;-81
2023/10/11 05:54:09;;;;;;;1999.90;999.90;;;10.30;98.80;;;;;;5052768;28;20129;-82
2023/10/11 05:56:38;;;;;;;1999.90;999.90;;;10.20;98.70;;;;;;5054012;28;20037;-80
2023/10/11 05:59:06;;;;;;;1999.90;999.90;;;10.20;98.70;;;;;;5047495;28;20233;-78
2023/10/11 06:01:34;;;;;;;1999.90;999.90;;;10.20;98.70;;;;;;5050872;28;20037;-82
2023/10/11 06:04:03;;;;;;;1999.90;999.90;;;10.20;98.60;;;;;;5055821;28;20071;-81
2023/10/11 06:06:38;;;;;;;1999.90;999.90;;;10.20;98.40;;;;;;5047008;28;20032;-83
2023/10/11 06:09:05;;;;;;;1999.90;999.90;;;10.30;98.30;;;;;;5047209;28;20812;-78
2023/10/11 06:11:38;;;;;;;1999.90;999.90;;;10.30;98.20;;;;;;5053977;28;20051;-81
2023/10/11 06:14:06;;;;;;;1999.90;999.90;;;10.30;98.20;;;;;;5044608;28;20041;-81
2023/10/11 06:16:37;;;;;;;1999.90;999.90;;;10.40;98.10;;;;;;5053549;28;20461;-80
2023/10/11 06:19:16;;;;;;;;;;;10.40;98.10;;;;;;5048055;28;20829;-82
2023/10/11 06:21:58;;;;;;;1999.90;999.90;;;10.30;98.00;;;;;;5051948;28;20621;-79
2023/10/11 06:24:30;;;;;;;1999.90;999.90;;;10.40;98.10;;;;;;5050748;28;20166;-81
2023/10/11 06:26:56;;;;;;;1999.90;999.90;;;10.40;98.10;;;;;;5055670;28;20028;-81
2023/10/11 06:29:23;;;;;;;1999.90;999.90;;;10.50;98.00;;;;;;5052016;28;20407;-79
2023/10/11 06:31:50;;;;;;;1999.90;999.90;;;10.50;97.90;;;;;;5047075;28;20064;-81
2023/10/11 06:34:26;;;;;;;1999.90;999.90;;;10.50;97.90;;;;;;5048762;28;20748;-80
2023/10/11 06:36:53;;;;;;;1999.90;999.90;;;10.60;98.00;;;;;;5049424;28;20112;-79
2023/10/11 06:42:13;;;;;;;1999.90;999.90;;;10.80;97.90;;;;;;5046833;28;20035;-82
2023/10/11 06:44:40;;;;;;;1999.90;999.90;;;10.80;97.90;;;;;;5048275;28;20033;-78
2023/10/11 06:47:06;;;;;;;1999.90;999.90;;;10.80;97.80;;;;;;5046789;28;20132;-80
2023/10/11 06:49:40;;;;;;;1999.90;999.90;;;11.00;97.80;;;;;;5049241;28;20044;-82
2023/10/11 06:52:07;;;;;;;1999.90;999.90;;;11.10;97.80;;;;;;5043732;28;20044;-82
2023/10/11 06:54:33;;;;;;;1999.90;999.90;;;11.10;97.70;;;;;;5047912;28;20083;-80
2023/10/11 06:57:01;;;;;;;1999.90;999.90;;;11.20;97.60;;;;;;5052158;28;20021;-80
2023/10/11 06:59:28;;;;;;;1999.90;999.90;;;11.40;97.50;;;;;;5051337;28;20053;-78
2023/10/11 07:01:54;;;;;;;1999.90;999.90;;;11.40;97.50;;;;;;5051854;28;20028;-77
2023/10/11 07:04:19;;;;;;;1999.90;999.90;;;11.60;97.40;;;;;;5049737;28;20033;-83
2023/10/11 07:06:48;;;;;;;1999.90;999.90;;;11.70;97.10;;;;;;5046487;28;20029;-81
2023/10/11 07:09:22;;;;;;;1999.90;999.90;;;11.70;97.00;;;;;;5044131;28;20056;-83
2023/10/11 07:12:18;;;;;;;1999.90;999.90;;;11.80;97.00;;;;;;5048226;28;20096;-81
2023/10/11 07:14:41;;;;;;;1999.90;999.90;;;11.90;96.60;;;;;;5048402;28;20047;-78
2023/10/11 07:17:08;;;;;;;1999.90;999.90;;;12.00;96.50;;;;;;5054034;28;20028;-78
2023/10/11 07:19:36;;;;;;;1999.90;999.90;;;12.10;96.80;;;;;;5052605;28;20035;-82
2023/10/11 07:22:03;;;;;;;1999.90;999.90;;;12.30;96.40;;;;;;5059220;28;20029;-80
2023/10/11 07:24:33;;;;;;;1999.90;999.90;;;12.30;96.50;;;;;;5052483;28;20052;-81
2023/10/11 07:27:09;;;;;;;1999.90;999.90;;;12.50;96.50;;;;;;5053810;28;20029;-81
2023/10/11 07:29:45;;;;;;;1999.90;999.90;;;12.60;96.30;;;;;;5033273;28;20101;-80
2023/10/11 07:32:11;;;;;;;1999.90;999.90;;;12.80;96.00;;;;;;5046027;28;20045;-81
2023/10/11 07:34:39;;;;;;;1999.90;999.90;;;12.90;95.90;;;;;;5050199;28;20045;-80
2023/10/11 07:37:06;;;;;;;1999.90;999.90;;;13.00;95.40;;;;;;5049418;28;20021;-80
2023/10/11 07:39:35;;;;;;;1999.90;999.90;;;13.10;95.30;;;;;;5055996;28;20265;-79
2023/10/11 07:42:18;;;;;;;1999.90;999.90;;;13.20;95.20;;;;;;5050803;28;20029;-79
2023/10/11 07:44:50;;;;;;;1999.90;999.90;;;13.30;95.10;;;;;;5033809;28;20033;-82
2023/10/11 07:47:16;;;;;;;1999.90;999.90;;;13.40;94.90;;;;;;5048414;28;20025;-79
2023/10/11 07:49:45;;;;;;;1999.90;999.90;;;13.50;95.00;;;;;;5049933;28;20499;-81
2023/10/11 07:52:18;;;;;;;1999.90;999.90;;;13.60;94.90;;;;;;5047308;28;20033;-82
2023/10/11 07:54:44;;;;;;;1999.90;999.90;;;13.70;94.80;;;;;;5048844;28;20514;-79
2023/10/11 07:57:13;;;;;;;1999.90;999.90;;;13.70;94.70;;;;;;5051212;28;20041;-79
2023/10/11 07:59:40;;;;;;;1999.90;999.90;;;13.80;94.90;;;;;;5045146;28;20076;-79
2023/10/11 08:02:26;;;;;;;1999.90;999.90;;;13.90;94.60;;;;;;5047601;28;20671;-79
2023/10/11 08:04:53;;;;;;;1999.90;999.90;;;14.10;94.60;;;;;;5050217;28;20029;-79
2023/10/11 08:07:21;;;;;;;1999.90;999.90;;;14.30;94.50;;;;;;5047131;28;20643;-78
2023/10/11 08:09:47;;;;;;;1999.90;999.90;;;14.30;94.40;;;;;;5049862;28;20075;-79
2023/10/11 08:12:16;;;;;;;1999.90;999.90;;;14.40;94.00;;;;;;5051507;28;20047;-78
2023/10/11 08:14:46;;;;;;;1999.90;999.90;;;14.50;93.90;;;;;;5059394;28;20029;-80
2023/10/11 08:17:15;;;;;;;1999.90;999.90;;;14.60;94.10;;;;;;5051429;28;20095;-79
2023/10/11 08:19:46;;;;;;;1999.90;999.90;;;14.80;93.90;;;;;;5050182;28;20033;-79
2023/10/11 08:22:16;;;;;;;1999.90;999.90;;;14.90;93.00;;;;;;5051342;28;20696;-79
2023/10/11 08:24:48;;;;;;;1999.90;999.90;;;14.90;92.30;;;;;;5055340;28;20060;-77
2023/10/11 08:27:16;;;;;;;1999.90;999.90;;;15.00;92.40;;;;;;5055752;28;20449;-77
2023/10/11 08:29:43;;;;;;;1999.90;999.90;;;15.10;92.00;;;;;;5057720;28;20089;-77
2023/10/11 08:32:13;;;;;;;1999.90;999.90;;;15.20;92.20;;;;;;5052565;28;20068;-80
2023/10/11 08:34:48;;;;;;;1999.90;999.90;;;15.30;91.80;;;;;;5049830;28;20048;-77
2023/10/11 08:37:14;;;;;;;1999.90;999.90;;;15.40;91.90;;;;;;5055903;28;20028;-80
2023/10/11 08:39:46;;;;;;;1999.90;999.90;;;15.60;91.30;;;;;;5041523;28;20065;-81
2023/10/11 08:42:14;;;;;;;1999.90;999.90;;;15.70;90.90;;;;;;5055157;28;20141;-80
2023/10/11 08:44:45;;;;;;;1999.90;999.90;;;15.90;90.80;;;;;;5036724;28;20087;-78
2023/10/11 08:47:13;;;;;;;1999.90;999.90;;;15.90;90.50;;;;;;5050764;28;20141;-79
2023/10/11 08:49:46;;;;;;;1999.90;999.90;;;16.00;89.40;;;;;;5057328;28;20071;-81
2023/10/11 08:52:17;;;;;;;1999.90;999.90;;;16.00;88.90;;;;;;5053082;28;20549;-79
2023/10/11 08:54:44;;;;;;;1999.90;999.90;;;16.20;88.50;;;;;;5052684;28;20051;-79
2023/10/11 08:57:13;;;;;;;1999.90;999.90;;;16.30;88.80;;;;;;5053549;28;20563;-79
2023/10/11 09:00:17;;;;;;;1999.90;999.90;;;16.50;87.00;;;;;;5050126;28;20029;-78
2023/10/11 09:02:48;;;;;;;1999.90;999.90;;;16.70;86.60;;;;;;5051008;28;20045;-80
2023/10/11 09:05:29;;;;;;;;;;;16.90;86.20;;;;;;5055164;28;20522;-78
2023/10/11 09:07:55;;;;;;;1999.90;999.90;;;16.90;84.40;;;;;;5049943;28;19912;-77
2023/10/11 09:10:28;;;;;;;1999.90;999.90;;;17.10;84.70;;;;;;5054808;28;20088;-78
2023/10/11 09:12:58;;;;;;;1999.90;999.90;;;17.20;83.20;;;;;;5036587;28;20033;-79
2023/10/11 09:15:45;;;;;;;1999.90;999.90;;;17.40;81.80;;;;;;5054002;28;20055;-78
2023/10/11 09:18:21;;;;;;;1999.90;999.90;;;17.50;80.80;;;;;;5048666;28;20029;-78
2023/10/11 09:21:08;;;;;;;1999.90;999.90;;;17.50;80.80;;;;;;5053610;28;20086;-78
2023/10/11 09:23:39;;;;;;;1999.90;999.90;;;17.50;80.60;;;;;;5049552;28;20031;-78
2023/10/11 09:26:08;;;;;;;1999.90;999.90;;;17.60;80.90;;;;;;5051899;28;20079;-78
2023/10/11 09:28:34;;;;;;;1999.90;999.90;;;17.60;80.10;;;;;;5052391;28;20036;-78
2023/10/11 09:31:20;;;;;;;1999.90;999.90;;;17.80;81.30;;;;;;5051063;28;20052;-78
2023/10/11 09:36:20;;;;;;;1999.90;999.90;;;18.00;79.00;;;;;;5047698;28;20494;-79
2023/10/11 09:38:54;;;;;;;1999.90;999.90;;;18.10;78.40;;;;;;5048861;28;20040;-81
2023/10/11 09:41:28;;;;;;;1999.90;999.90;;;18.10;78.00;;;;;;5048193;28;20021;-78
2023/10/11 09:43:59;;;;;;;1999.90;999.90;;;18.20;77.50;;;;;;5052968;28;20031;-78
2023/10/11 09:46:31;;;;;;;1999.90;999.90;;;18.40;78.60;;;;;;5048742;28;20045;-79
2023/10/11 09:49:01;;;;;;;1999.90;999.90;;;18.60;77.40;;;;;;5057269;28;20115;-79
2023/10/11 09:51:30;;;;;;;1999.90;999.90;;;18.50;76.90;;;;;;5043190;28;20037;-78
2023/10/11 09:54:06;;;;;;;1999.90;999.90;;;18.50;76.10;;;;;;5052061;28;20040;-78
2023/10/11 09:56:50;;;;;;;1999.90;999.90;;;18.70;75.70;;;;;;5062409;28;20033;-79
2023/10/11 09:59:50;;;;;;;1999.90;999.90;;;18.80;74.80;;;;;;5052232;28;20016;-78
2023/10/11 10:02:34;;;;;;;1999.90;999.90;;;18.90;74.50;;;;;;5050996;28;20021;-78
2023/10/11 10:05:04;;;;;;;1999.90;999.90;;;18.90;76.20;;;;;;5035780;28;20105;-79
2023/10/11 10:10:07;;;;;;;1999.90;999.90;;;19.20;74.90;;;;;;5054879;28;20032;-77
2023/10/11 10:12:35;;;;;;;1999.90;999.90;;;19.30;74.40;;;;;;5051942;28;20037;-78
2023/10/11 10:15:03;;;;;;;1999.90;999.90;;;19.40;72.30;;;;;;5050900;28;20021;-77
2023/10/11 10:17:29;;;;;;;1999.90;999.90;;;19.60;73.10;;;;;;5048221;28;20041;-76
2023/10/11 10:20:00;;;;;;;1999.90;999.90;;;19.80;72.90;;;;;;5049967;28;20060;-76
2023/10/11 10:22:32;;;;;;;1999.90;999.90;;;19.80;72.00;;;;;;5050983;28;20025;-76
2023/10/11 10:25:20;;;;;;;1999.90;999.90;;;19.90;70.10;;;;;;5052763;28;20692;-76
2023/10/11 10:27:46;;;;;;;1999.90;999.90;;;20.10;70.10;;;;;;5047544;28;20029;-76
2023/10/11 10:30:21;;;;;;;1999.90;999.90;;;20.30;68.10;;;;;;5050550;28;20040;-77
2023/10/11 10:33:18;;;;;;;1999.90;999.90;;;20.20;66.80;;;;;;5049141;28;20040;-77
2023/10/11 10:35:44;;;;;;;1999.90;999.90;;;20.30;65.70;;;;;;5048420;28;20127;-76
2023/10/11 10:38:10;;;;;;;1999.90;999.90;;;20.30;67.20;;;;;;5047883;28;20052;-77
2023/10/11 10:40:45;;;;;;;1999.90;999.90;;;20.40;65.60;;;;;;5050612;28;20060;-78
2023/10/11 10:43:27;;;;;;;1999.90;999.90;;;20.40;65.80;;;;;;5049584;28;20091;-76
2023/10/11 10:45:59;;;;;;;1999.90;999.90;;;20.50;67.50;;;;;;5047915;28;20033;-76
2023/10/11 10:48:30;;;;;;;1999.90;999.90;;;20.70;65.60;;;;;;5051498;28;20029;-76
2023/10/11 10:51:05;;;;;;;1999.90;999.90;;;20.80;67.00;;;;;;5054536;28;20033;-76
2023/10/11 10:53:38;;;;;;;1999.90;999.90;;;21.00;65.90;;;;;;5031382;28;20024;-76
2023/10/11 10:56:04;;;;;;;1999.90;999.90;;;21.10;65.40;;;;;;5044748;28;20547;-76
2023/10/11 10:58:30;;;;;;;1999.90;999.90;;;21.30;65.00;;;;;;5053864;28;20035;-76
2023/10/11 11:00:59;;;;;;;1999.90;999.90;;;21.30;65.10;;;;;;5039082;28;20052;-77
2023/10/11 11:03:31;;;;;;;1999.90;999.90;;;21.40;62.50;;;;;;5045959;28;20538;-74
2023/10/11 11:06:02;;;;;;;1999.90;999.90;;;21.50;62.30;;;;;;5045638;28;20444;-76
2023/10/11 11:08:32;;;;;;;1999.90;999.90;;;21.60;61.70;;;;;;5049035;28;20033;-75
2023/10/11 11:11:19;;;;;;;1999.90;999.90;;;21.70;61.60;;;;;;5050995;28;20040;-76
2023/10/11 11:13:49;;;;;;;1999.90;999.90;;;21.80;58.90;;;;;;5050526;28;20025;-82
2023/10/11 11:16:31;;;;;;;1999.90;999.90;;;22.00;60.80;;;;;;5049650;28;20514;-76
2023/10/11 11:19:00;;;;;;;1999.90;999.90;;;22.20;56.70;;;;;;5046482;28;20581;-76
2023/10/11 11:21:29;;;;;;;1999.90;999.90;;;22.20;57.20;;;;;;5053335;28;20025;-77
2023/10/11 11:24:14;;;;;;;1999.90;999.90;;;22.30;57.60;;;;;;5054640;28;20052;-77
2023/10/11 11:26:40;;;;;;;1999.90;999.90;;;22.40;54.60;;;;;;5048001;28;20158;-76
2023/10/11 11:29:14;;;;;;;1999.90;999.90;;;22.40;52.00;;;;;;5051063;28;20124;-76
2023/10/11 11:31:52;;;;;;;1999.90;999.90;;;22.50;56.20;;;;;;5050811;28;20041;-76
2023/10/11 11:34:27;;;;;;;1999.90;999.90;;;22.70;54.70;;;;;;5055306;28;20491;-78
2023/10/11 11:37:04;;;;;;;1999.90;999.90;;;22.80;51.50;;;;;;5048599;28;20498;-76
2023/10/11 11:39:39;;;;;;;1999.90;999.90;;;22.90;49.50;;;;;;5049609;28;20041;-76
2023/10/11 11:42:24;;;;;;;1999.90;999.90;;;23.00;48.40;;;;;;5052502;28;20112;-76
2023/10/11 11:44:51;;;;;;;1999.90;999.90;;;23.10;45.50;;;;;;5050192;28;20025;-76
2023/10/11 11:47:28;;;;;;;1999.90;999.90;;;23.30;43.90;;;;;;5050238;28;20036;-76
2023/10/11 11:49:58;;;;;;;1999.90;999.90;;;23.50;45.50;;;;;;5052205;28;20029;-75
2023/10/11 11:52:24;;;;;;;;;;;23.50;40.50;;;;;;5053749;28;20120;-76
2023/10/11 11:54:50;;;;;;;1999.90;999.90;;;23.90;40.10;;;;;;5050661;28;20062;-75
2023/10/11 11:57:15;;;;;;;1999.90;999.90;;;24.10;40.10;;;;;;5061743;28;20035;-78
2023/10/11 11:59:43;;;;;;;1999.90;999.90;;;24.10;40.40;;;;;;5044594;28;20511;-77
2023/10/11 12:02:16;;;;;;;1999.90;999.90;;;24.20;41.30;;;;;;5059118;28;20029;-76
2023/10/11 12:04:44;;;;;;;1999.90;999.90;;;24.50;40.10;;;;;;5051489;28;20041;-75
2023/10/11 12:07:10;;;;;;;1999.90;999.90;;;24.70;36.60;;;;;;5044292;28;20091;-75
2023/10/11 12:09:38;;;;;;;1999.90;999.90;;;25.40;36.80;;;;;;5046672;28;20078;-75
2023/10/11 12:12:05;;;;;;;1999.90;999.90;;;25.80;34.20;;;;;;5049487;28;20033;-75
2023/10/11 12:14:37;;;;;;;1999.90;999.90;;;26.10;33.40;;;;;;5053474;28;20020;-75
2023/10/11 12:17:11;;;;;;;1999.90;999.90;;;26.60;32.50;;;;;;5053484;28;20515;-76
2023/10/11 12:19:38;;;;;;;1999.90;999.90;;;27.10;34.00;;;;;;5047963;28;20033;-75
2023/10/11 12:22:04;;;;;;;1999.90;999.90;;;27.00;30.10;;;;;;5053301;28;20021;-75
2023/10/11 12:24:30;;;;;;;1999.90;999.90;;;26.50;29.60;;;;;;5048525;28;20040;-75
2023/10/11 12:26:58;;;;;;;1999.90;999.90;;;26.00;29.50;;;;;;5048393;28;20040;-75
2023/10/11 12:29:24;;;;;;;1999.90;999.90;;;26.80;30.70;;;;;;5045457;28;20087;-75
2023/10/11 12:31:50;;;;;;;1999.90;999.90;;;27.50;29.70;;;;;;5046962;28;20081;-76
2023/10/11 12:34:16;;;;;;;1999.90;999.90;;;27.60;30.00;;;;;;5055033;28;20069;-78
2023/10/11 12:36:42;;;;;;;1999.90;999.90;;;27.50;32.10;;;;;;5048472;28;20037;-76
2023/10/11 12:39:23;;;;;;;1999.90;999.90;;;27.70;29.40;;;;;;5047281;28;20025;-75
2023/10/11 12:41:50;;;;;;;1999.90;999.90;;;28.20;29.20;;;;;;5050420;28;20029;-75
2023/10/11 12:44:17;;;;;;;1999.90;999.90;;;28.10;28.70;;;;;;5053774;28;20055;-75
2023/10/11 12:46:44;;;;;;;1999.90;999.90;;;27.30;28.30;;;;;;5057461;28;20033;-75
2023/10/11 12:49:13;;;;;;;1999.90;999.90;;;28.00;28.30;;;;;;5057442;28;20028;-75
2023/10/11 12:51:48;;;;;;;1999.90;999.90;;;28.00;28.60;;;;;;5049918;28;20135;-75
2023/10/11 12:54:19;;;;;;;1999.90;999.90;;;28.30;27.70;;;;;;5051834;28;20037;-75
2023/10/11 12:56:46;;;;;;;1999.90;999.90;;;28.70;27.70;;;;;;5054613;28;20043;-75
2023/10/11 12:59:16;;;;;;;1999.90;999.90;;;28.50;27.00;;;;;;5056313;28;20028;-76
2023/10/11 13:01:52;;;;;;;1999.90;999.90;;;28.70;25.50;;;;;;5049436;28;20554;-75
2023/10/11 13:04:30;;;;;;;1999.90;999.90;;;28.10;26.50;;;;;;5054659;28;20044;-74
2023/10/11 13:06:59;;;;;;;1999.90;999.90;;;28.60;26.00;;;;;;5055270;28;20056;-75
2023/10/11 13:09:27;;;;;;;1999.90;999.90;;;28.70;26.10;;;;;;5055345;28;20029;-75
2023/10/11 13:11:57;;;;;;;1999.90;999.90;;;29.10;25.10;;;;;;5051519;28;20501;-75